sensor_id;sensor_type;location;lat;lon;timestamp;temperature;humidity
24468;DHT22;12634;50.852;5.676;2023-06-14T00:01:14;16.40;99.90
24468;DHT22;12634;50.852;5.676;2023-06-14T00:03:41;16.40;99.90
24468;DHT22;12634;50.852;5.676;2023-06-14T00:06:09;16.20;99.90
24468;DHT22;12634;50.852;5.676;2023-06-14T00:08:37;16.30;99.90
24468;DHT22;12634;50.852;5.676;2023-06-14T00:11:05;16.30;99.90
24468;DHT22;12634;50.852;5.676;2023-06-14T00:13:32;16.10;99.90
24468;DHT22;12634;50.852;5.676;2023-06-14T00:15:59;16.20;99.90
24468;DHT22;12634;50.852;5.676;2023-06-14T00:18:26;15.70;99.90
24468;DHT22;12634;50.852;5.676;2023-06-14T00:20:55;15.40;99.90
24468;DHT22;12634;50.852;5.676;2023-06-14T00:23:24;15.40;99.90
24468;DHT22;12634;50.852;5.676;2023-06-14T00:25:51;15.10;99.90
24468;DHT22;12634;50.852;5.676;2023-06-14T00:28:18;15.00;99.90
24468;DHT22;12634;50.852;5.676;2023-06-14T00:30:46;14.90;99.90
24468;DHT22;12634;50.852;5.676;2023-06-14T00:33:13;14.80;99.90
24468;DHT22;12634;50.852;5.676;2023-06-14T00:35:40;14.70;99.90
24468;DHT22;12634;50.852;5.676;2023-06-14T00:38:07;14.60;99.90
24468;DHT22;12634;50.852;5.676;2023-06-14T00:40:36;14.60;99.90
24468;DHT22;12634;50.852;5.676;2023-06-14T00:43:03;14.60;99.90
24468;DHT22;12634;50.852;5.676;2023-06-14T00:45:30;14.80;99.90
24468;DHT22;12634;50.852;5.676;2023-06-14T00:48:01;14.80;99.90
24468;DHT22;12634;50.852;5.676;2023-06-14T00:50:30;14.90;99.90
24468;DHT22;12634;50.852;5.676;2023-06-14T00:52:59;14.90;99.90
24468;DHT22;12634;50.852;5.676;2023-06-14T00:55:26;14.90;99.90
24468;DHT22;12634;50.852;5.676;2023-06-14T00:57:55;14.80;99.90
24468;DHT22;12634;50.852;5.676;2023-06-14T01:00:23;14.80;99.90
24468;DHT22;12634;50.852;5.676;2023-06-14T01:02:50;14.70;99.90
24468;DHT22;12634;50.852;5.676;2023-06-14T01:05:17;14.60;99.90
24468;DHT22;12634;50.852;5.676;2023-06-14T01:07:59;14.50;99.90
24468;DHT22;12634;50.852;5.676;2023-06-14T01:10:35;14.40;99.90
24468;DHT22;12634;50.852;5.676;2023-06-14T01:13:10;14.30;99.90
24468;DHT22;12634;50.852;5.676;2023-06-14T01:15:39;14.30;99.90
24468;DHT22;12634;50.852;5.676;2023-06-14T01:18:07;14.20;99.90
24468;DHT22;12634;50.852;5.676;2023-06-14T01:20:43;14.30;99.90
24468;DHT22;12634;50.852;5.676;2023-06-14T01:23:12;14.30;99.90
24468;DHT22;12634;50.852;5.676;2023-06-14T01:25:39;14.20;99.90
24468;DHT22;12634;50.852;5.676;2023-06-14T01:28:10;14.20;99.90
24468;DHT22;12634;50.852;5.676;2023-06-14T01:30:40;14.30;99.90
24468;DHT22;12634;50.852;5.676;2023-06-14T01:33:12;14.30;99.90
24468;DHT22;12634;50.852;5.676;2023-06-14T01:35:40;14.30;99.90
24468;DHT22;12634;50.852;5.676;2023-06-14T01:38:08;14.30;99.90
24468;DHT22;12634;50.852;5.676;2023-06-14T01:40:37;14.30;99.90
24468;DHT22;12634;50.852;5.676;2023-06-14T01:43:06;14.20;99.90
24468;DHT22;12634;50.852;5.676;2023-06-14T01:45:33;14.20;99.90
24468;DHT22;12634;50.852;5.676;2023-06-14T01:48:01;14.30;99.90
24468;DHT22;12634;50.852;5.676;2023-06-14T01:50:30;14.50;99.90
24468;DHT22;12634;50.852;5.676;2023-06-14T01:52:57;14.70;99.90
24468;DHT22;12634;50.852;5.676;2023-06-14T01:55:25;14.80;99.90
24468;DHT22;12634;50.852;5.676;2023-06-14T01:57:54;14.70;99.90
24468;DHT22;12634;50.852;5.676;2023-06-14T02:00:21;14.50;99.90
24468;DHT22;12634;50.852;5.676;2023-06-14T02:02:48;14.50;99.90
24468;DHT22;12634;50.852;5.676;2023-06-14T02:05:16;14.50;99.90
24468;DHT22;12634;50.852;5.676;2023-06-14T02:07:44;14.60;99.90
24468;DHT22;12634;50.852;5.676;2023-06-14T02:10:12;14.60;99.90
24468;DHT22;12634;50.852;5.676;2023-06-14T02:12:40;14.80;99.90
24468;DHT22;12634;50.852;5.676;2023-06-14T02:15:09;14.70;99.90
24468;DHT22;12634;50.852;5.676;2023-06-14T02:17:43;14.40;99.90
24468;DHT22;12634;50.852;5.676;2023-06-14T02:20:12;14.30;99.90
24468;DHT22;12634;50.852;5.676;2023-06-14T02:22:40;14.10;99.90
24468;DHT22;12634;50.852;5.676;2023-06-14T02:25:07;14.00;99.90
24468;DHT22;12634;50.852;5.676;2023-06-14T02:27:35;14.00;99.90
24468;DHT22;12634;50.852;5.676;2023-06-14T02:30:03;14.10;99.90
24468;DHT22;12634;50.852;5.676;2023-06-14T02:32:31;14.00;99.90
24468;DHT22;12634;50.852;5.676;2023-06-14T02:34:59;14.40;99.90
24468;DHT22;12634;50.852;5.676;2023-06-14T02:37:26;14.00;99.90
24468;DHT22;12634;50.852;5.676;2023-06-14T02:39:55;14.00;99.90
24468;DHT22;12634;50.852;5.676;2023-06-14T02:42:22;14.30;99.90
24468;DHT22;12634;50.852;5.676;2023-06-14T02:44:49;14.30;99.90
24468;DHT22;12634;50.852;5.676;2023-06-14T02:47:17;14.10;99.90
24468;DHT22;12634;50.852;5.676;2023-06-14T02:49:46;14.00;99.90
24468;DHT22;12634;50.852;5.676;2023-06-14T02:52:13;13.80;99.90
24468;DHT22;12634;50.852;5.676;2023-06-14T02:54:40;13.90;99.90
24468;DHT22;12634;50.852;5.676;2023-06-14T02:57:07;14.00;99.90
24468;DHT22;12634;50.852;5.676;2023-06-14T02:59:36;14.00;99.90
24468;DHT22;12634;50.852;5.676;2023-06-14T03:02:03;13.90;99.90
24468;DHT22;12634;50.852;5.676;2023-06-14T03:04:31;13.90;99.90
24468;DHT22;12634;50.852;5.676;2023-06-14T03:07:04;13.90;99.90
24468;DHT22;12634;50.852;5.676;2023-06-14T03:09:35;13.70;99.90
24468;DHT22;12634;50.852;5.676;2023-06-14T03:12:03;13.60;99.90
24468;DHT22;12634;50.852;5.676;2023-06-14T03:14:31;13.70;99.90
24468;DHT22;12634;50.852;5.676;2023-06-14T03:16:58;13.70;99.90
24468;DHT22;12634;50.852;5.676;2023-06-14T03:19:26;13.60;99.90
24468;DHT22;12634;50.852;5.676;2023-06-14T03:21:53;13.60;99.90
24468;DHT22;12634;50.852;5.676;2023-06-14T03:24:24;13.60;99.90
24468;DHT22;12634;50.852;5.676;2023-06-14T03:26:53;13.70;99.90
24468;DHT22;12634;50.852;5.676;2023-06-14T03:29:20;13.90;99.90
24468;DHT22;12634;50.852;5.676;2023-06-14T03:31:57;13.90;99.90
24468;DHT22;12634;50.852;5.676;2023-06-14T03:34:25;14.00;99.90
24468;DHT22;12634;50.852;5.676;2023-06-14T03:36:52;14.00;99.90
24468;DHT22;12634;50.852;5.676;2023-06-14T03:39:20;14.00;99.90
24468;DHT22;12634;50.852;5.676;2023-06-14T03:41:49;14.00;99.90
24468;DHT22;12634;50.852;5.676;2023-06-14T03:44:16;14.10;99.90
24468;DHT22;12634;50.852;5.676;2023-06-14T03:46:44;14.10;99.90
24468;DHT22;12634;50.852;5.676;2023-06-14T03:49:11;14.10;99.90
24468;DHT22;12634;50.852;5.676;2023-06-14T03:51:39;14.20;99.90
24468;DHT22;12634;50.852;5.676;2023-06-14T03:54:07;14.20;99.90
24468;DHT22;12634;50.852;5.676;2023-06-14T03:56:34;14.20;99.90
24468;DHT22;12634;50.852;5.676;2023-06-14T03:59:03;14.10;99.90
24468;DHT22;12634;50.852;5.676;2023-06-14T04:01:30;14.10;99.90
24468;DHT22;12634;50.852;5.676;2023-06-14T04:03:59;14.20;99.90
24468;DHT22;12634;50.852;5.676;2023-06-14T04:06:26;14.30;99.90
24468;DHT22;12634;50.852;5.676;2023-06-14T04:08:59;14.20;99.90
24468;DHT22;12634;50.852;5.676;2023-06-14T04:11:30;14.30;99.90
24468;DHT22;12634;50.852;5.676;2023-06-14T04:13:58;14.40;99.90
24468;DHT22;12634;50.852;5.676;2023-06-14T04:16:26;14.50;99.90
24468;DHT22;12634;50.852;5.676;2023-06-14T04:18:55;14.50;99.90
24468;DHT22;12634;50.852;5.676;2023-06-14T04:21:23;14.50;99.90
24468;DHT22;12634;50.852;5.676;2023-06-14T04:23:53;14.60;99.90
24468;DHT22;12634;50.852;5.676;2023-06-14T04:26:21;14.60;99.90
24468;DHT22;12634;50.852;5.676;2023-06-14T04:28:49;14.60;99.90
24468;DHT22;12634;50.852;5.676;2023-06-14T04:31:17;14.80;99.90
24468;DHT22;12634;50.852;5.676;2023-06-14T04:33:45;15.10;99.90
24468;DHT22;12634;50.852;5.676;2023-06-14T04:36:13;15.50;99.90
24468;DHT22;12634;50.852;5.676;2023-06-14T04:38:43;15.70;99.90
24468;DHT22;12634;50.852;5.676;2023-06-14T04:41:12;15.80;99.90
24468;DHT22;12634;50.852;5.676;2023-06-14T04:43:39;15.80;99.90
24468;DHT22;12634;50.852;5.676;2023-06-14T04:46:08;15.70;99.90
24468;DHT22;12634;50.852;5.676;2023-06-14T04:48:37;15.60;99.90
24468;DHT22;12634;50.852;5.676;2023-06-14T04:51:08;15.70;99.90
24468;DHT22;12634;50.852;5.676;2023-06-14T04:53:35;15.70;99.90
24468;DHT22;12634;50.852;5.676;2023-06-14T04:56:03;15.80;99.90
24468;DHT22;12634;50.852;5.676;2023-06-14T04:58:30;15.80;99.90
24468;DHT22;12634;50.852;5.676;2023-06-14T05:00:57;15.80;99.90
24468;DHT22;12634;50.852;5.676;2023-06-14T05:03:25;15.80;99.90
24468;DHT22;12634;50.852;5.676;2023-06-14T05:05:52;15.90;99.90
24468;DHT22;12634;50.852;5.676;2023-06-14T05:08:22;16.00;99.90
24468;DHT22;12634;50.852;5.676;2023-06-14T05:10:50;16.40;99.90
24468;DHT22;12634;50.852;5.676;2023-06-14T05:13:17;17.20;99.90
24468;DHT22;12634;50.852;5.676;2023-06-14T05:15:44;17.50;99.90
24468;DHT22;12634;50.852;5.676;2023-06-14T05:18:12;17.30;99.90
24468;DHT22;12634;50.852;5.676;2023-06-14T05:20:41;17.60;99.90
24468;DHT22;12634;50.852;5.676;2023-06-14T05:23:09;18.20;99.90
24468;DHT22;12634;50.852;5.676;2023-06-14T05:25:42;18.60;99.90
24468;DHT22;12634;50.852;5.676;2023-06-14T05:28:10;19.00;99.90
24468;DHT22;12634;50.852;5.676;2023-06-14T05:30:38;19.40;99.90
24468;DHT22;12634;50.852;5.676;2023-06-14T05:33:05;19.40;99.90
24468;DHT22;12634;50.852;5.676;2023-06-14T05:35:32;19.40;99.90
24468;DHT22;12634;50.852;5.676;2023-06-14T05:37:59;19.80;99.90
24468;DHT22;12634;50.852;5.676;2023-06-14T05:40:26;20.00;99.90
24468;DHT22;12634;50.852;5.676;2023-06-14T05:42:55;20.30;99.90
24468;DHT22;12634;50.852;5.676;2023-06-14T05:45:22;20.50;99.90
24468;DHT22;12634;50.852;5.676;2023-06-14T05:47:49;20.40;99.90
24468;DHT22;12634;50.852;5.676;2023-06-14T05:50:18;20.10;99.90
24468;DHT22;12634;50.852;5.676;2023-06-14T05:52:45;19.80;99.90
24468;DHT22;12634;50.852;5.676;2023-06-14T05:55:12;19.50;99.90
24468;DHT22;12634;50.852;5.676;2023-06-14T05:57:39;19.30;99.90
24468;DHT22;12634;50.852;5.676;2023-06-14T06:00:10;19.20;99.90
24468;DHT22;12634;50.852;5.676;2023-06-14T06:02:40;19.20;99.90
24468;DHT22;12634;50.852;5.676;2023-06-14T06:05:08;19.40;99.90
24468;DHT22;12634;50.852;5.676;2023-06-14T06:07:35;20.00;99.90
24468;DHT22;12634;50.852;5.676;2023-06-14T06:10:03;20.80;99.90
24468;DHT22;12634;50.852;5.676;2023-06-14T06:12:31;21.60;99.90
24468;DHT22;12634;50.852;5.676;2023-06-14T06:14:58;21.90;99.90
24468;DHT22;12634;50.852;5.676;2023-06-14T06:17:27;22.60;99.90
24468;DHT22;12634;50.852;5.676;2023-06-14T06:19:54;23.10;99.90
24468;DHT22;12634;50.852;5.676;2023-06-14T06:22:21;23.30;99.90
24468;DHT22;12634;50.852;5.676;2023-06-14T06:24:48;23.60;99.90
24468;DHT22;12634;50.852;5.676;2023-06-14T06:27:16;23.90;99.90
24468;DHT22;12634;50.852;5.676;2023-06-14T06:29:44;24.50;99.90
24468;DHT22;12634;50.852;5.676;2023-06-14T06:32:11;24.90;98.10
24468;DHT22;12634;50.852;5.676;2023-06-14T06:34:40;24.70;98.50
24468;DHT22;12634;50.852;5.676;2023-06-14T06:37:07;24.70;99.40
24468;DHT22;12634;50.852;5.676;2023-06-14T06:39:34;25.00;99.00
24468;DHT22;12634;50.852;5.676;2023-06-14T06:42:01;25.10;96.00
24468;DHT22;12634;50.852;5.676;2023-06-14T06:44:31;24.90;95.80
24468;DHT22;12634;50.852;5.676;2023-06-14T06:46:59;24.50;95.40
24468;DHT22;12634;50.852;5.676;2023-06-14T06:49:26;25.30;94.20
24468;DHT22;12634;50.852;5.676;2023-06-14T06:52:01;25.20;93.90
24468;DHT22;12634;50.852;5.676;2023-06-14T06:54:29;24.90;92.70
24468;DHT22;12634;50.852;5.676;2023-06-14T06:56:56;24.70;92.70
24468;DHT22;12634;50.852;5.676;2023-06-14T06:59:23;25.00;93.30
24468;DHT22;12634;50.852;5.676;2023-06-14T07:01:50;25.50;93.60
24468;DHT22;12634;50.852;5.676;2023-06-14T07:04:17;25.40;91.40
24468;DHT22;12634;50.852;5.676;2023-06-14T07:06:46;25.50;87.50
24468;DHT22;12634;50.852;5.676;2023-06-14T07:09:15;25.40;89.60
24468;DHT22;12634;50.852;5.676;2023-06-14T07:11:44;25.80;89.70
24468;DHT22;12634;50.852;5.676;2023-06-14T07:14:11;26.30;91.10
24468;DHT22;12634;50.852;5.676;2023-06-14T07:16:38;26.20;87.00
24468;DHT22;12634;50.852;5.676;2023-06-14T07:19:06;26.70;81.50
24468;DHT22;12634;50.852;5.676;2023-06-14T07:21:34;26.60;90.60
24468;DHT22;12634;50.852;5.676;2023-06-14T07:24:05;26.80;82.70
24468;DHT22;12634;50.852;5.676;2023-06-14T07:26:35;27.00;84.90
24468;DHT22;12634;50.852;5.676;2023-06-14T07:29:02;26.70;85.00
24468;DHT22;12634;50.852;5.676;2023-06-14T07:31:29;26.90;87.80
24468;DHT22;12634;50.852;5.676;2023-06-14T07:33:56;27.10;88.10
24468;DHT22;12634;50.852;5.676;2023-06-14T07:36:23;27.00;85.50
24468;DHT22;12634;50.852;5.676;2023-06-14T07:38:50;27.70;85.50
24468;DHT22;12634;50.852;5.676;2023-06-14T07:41:18;27.90;79.70
24468;DHT22;12634;50.852;5.676;2023-06-14T07:43:46;27.80;82.10
24468;DHT22;12634;50.852;5.676;2023-06-14T07:46:14;27.80;81.00
24468;DHT22;12634;50.852;5.676;2023-06-14T07:48:41;28.30;77.50
24468;DHT22;12634;50.852;5.676;2023-06-14T07:51:08;27.50;80.90
24468;DHT22;12634;50.852;5.676;2023-06-14T07:53:36;28.00;80.00
24468;DHT22;12634;50.852;5.676;2023-06-14T07:56:03;28.00;77.40
24468;DHT22;12634;50.852;5.676;2023-06-14T07:58:30;28.00;77.10
24468;DHT22;12634;50.852;5.676;2023-06-14T08:00:59;27.70;77.30
24468;DHT22;12634;50.852;5.676;2023-06-14T08:03:29;27.30;87.40
24468;DHT22;12634;50.852;5.676;2023-06-14T08:05:56;27.40;81.00
24468;DHT22;12634;50.852;5.676;2023-06-14T08:08:23;27.20;82.40
24468;DHT22;12634;50.852;5.676;2023-06-14T08:10:50;27.60;83.10
24468;DHT22;12634;50.852;5.676;2023-06-14T08:13:18;27.90;87.60
24468;DHT22;12634;50.852;5.676;2023-06-14T08:15:45;28.50;81.70
24468;DHT22;12634;50.852;5.676;2023-06-14T08:18:14;27.80;74.60
24468;DHT22;12634;50.852;5.676;2023-06-14T08:20:41;27.40;75.20
24468;DHT22;12634;50.852;5.676;2023-06-14T08:23:09;27.30;79.00
24468;DHT22;12634;50.852;5.676;2023-06-14T08:25:37;27.30;79.60
24468;DHT22;12634;50.852;5.676;2023-06-14T08:28:04;27.20;82.30
24468;DHT22;12634;50.852;5.676;2023-06-14T08:30:32;27.60;75.20
24468;DHT22;12634;50.852;5.676;2023-06-14T08:32:59;27.40;75.90
24468;DHT22;12634;50.852;5.676;2023-06-14T08:35:28;27.40;80.00
24468;DHT22;12634;50.852;5.676;2023-06-14T08:37:55;27.50;81.50
24468;DHT22;12634;50.852;5.676;2023-06-14T08:40:23;27.50;85.60
24468;DHT22;12634;50.852;5.676;2023-06-14T08:42:52;27.70;82.90
24468;DHT22;12634;50.852;5.676;2023-06-14T08:45:20;28.00;78.00
24468;DHT22;12634;50.852;5.676;2023-06-14T08:47:48;28.20;79.70
24468;DHT22;12634;50.852;5.676;2023-06-14T08:50:20;29.10;79.20
24468;DHT22;12634;50.852;5.676;2023-06-14T08:52:54;28.70;76.90
24468;DHT22;12634;50.852;5.676;2023-06-14T08:55:22;28.90;74.00
24468;DHT22;12634;50.852;5.676;2023-06-14T08:57:53;28.30;72.30
24468;DHT22;12634;50.852;5.676;2023-06-14T09:00:21;28.30;71.80
24468;DHT22;12634;50.852;5.676;2023-06-14T09:02:50;28.00;73.70
24468;DHT22;12634;50.852;5.676;2023-06-14T09:05:22;28.30;70.50
24468;DHT22;12634;50.852;5.676;2023-06-14T09:07:51;28.00;78.90
24468;DHT22;12634;50.852;5.676;2023-06-14T09:10:18;28.40;69.80
24468;DHT22;12634;50.852;5.676;2023-06-14T09:12:47;28.20;73.60
24468;DHT22;12634;50.852;5.676;2023-06-14T09:15:14;28.90;70.70
24468;DHT22;12634;50.852;5.676;2023-06-14T09:17:43;28.50;63.90
24468;DHT22;12634;50.852;5.676;2023-06-14T09:20:10;28.10;67.90
24468;DHT22;12634;50.852;5.676;2023-06-14T09:22:39;27.60;68.60
24468;DHT22;12634;50.852;5.676;2023-06-14T09:25:09;27.70;65.60
24468;DHT22;12634;50.852;5.676;2023-06-14T09:27:38;27.70;67.00
24468;DHT22;12634;50.852;5.676;2023-06-14T09:30:09;28.00;68.00
24468;DHT22;12634;50.852;5.676;2023-06-14T09:32:37;28.30;70.60
24468;DHT22;12634;50.852;5.676;2023-06-14T09:35:06;28.40;67.70
24468;DHT22;12634;50.852;5.676;2023-06-14T09:37:34;28.60;64.60
24468;DHT22;12634;50.852;5.676;2023-06-14T09:40:05;28.50;65.70
24468;DHT22;12634;50.852;5.676;2023-06-14T09:42:34;27.60;68.10
24468;DHT22;12634;50.852;5.676;2023-06-14T09:45:02;27.70;65.20
24468;DHT22;12634;50.852;5.676;2023-06-14T09:47:30;28.60;72.80
24468;DHT22;12634;50.852;5.676;2023-06-14T09:49:57;28.50;68.50
24468;DHT22;12634;50.852;5.676;2023-06-14T09:52:27;28.60;67.60
24468;DHT22;12634;50.852;5.676;2023-06-14T09:54:55;28.70;65.00
24468;DHT22;12634;50.852;5.676;2023-06-14T09:57:23;28.50;68.50
24468;DHT22;12634;50.852;5.676;2023-06-14T09:59:57;28.60;63.00
24468;DHT22;12634;50.852;5.676;2023-06-14T10:02:28;28.80;65.60
24468;DHT22;12634;50.852;5.676;2023-06-14T10:05:03;28.90;70.20
24468;DHT22;12634;50.852;5.676;2023-06-14T10:07:34;28.70;66.80
24468;DHT22;12634;50.852;5.676;2023-06-14T10:10:03;28.90;69.00
24468;DHT22;12634;50.852;5.676;2023-06-14T10:12:30;28.90;64.50
24468;DHT22;12634;50.852;5.676;2023-06-14T10:14:59;28.70;71.20
24468;DHT22;12634;50.852;5.676;2023-06-14T10:17:35;28.10;66.20
24468;DHT22;12634;50.852;5.676;2023-06-14T10:20:16;28.00;64.30
24468;DHT22;12634;50.852;5.676;2023-06-14T10:22:50;28.80;79.20
24468;DHT22;12634;50.852;5.676;2023-06-14T10:25:27;28.80;62.60
24468;DHT22;12634;50.852;5.676;2023-06-14T10:28:15;28.50;63.80
24468;DHT22;12634;50.852;5.676;2023-06-14T10:31:07;29.00;63.50
24468;DHT22;12634;50.852;5.676;2023-06-14T10:33:35;28.40;65.70
24468;DHT22;12634;50.852;5.676;2023-06-14T10:36:25;28.90;60.30
24468;DHT22;12634;50.852;5.676;2023-06-14T10:39:07;29.10;69.20
24468;DHT22;12634;50.852;5.676;2023-06-14T10:41:38;28.80;60.80
24468;DHT22;12634;50.852;5.676;2023-06-14T10:44:34;28.30;60.10
24468;DHT22;12634;50.852;5.676;2023-06-14T10:47:09;28.70;69.10
24468;DHT22;12634;50.852;5.676;2023-06-14T10:49:39;28.10;63.40
24468;DHT22;12634;50.852;5.676;2023-06-14T10:52:11;28.50;66.70
24468;DHT22;12634;50.852;5.676;2023-06-14T10:55:05;28.50;67.50
24468;DHT22;12634;50.852;5.676;2023-06-14T10:57:35;28.90;66.40
24468;DHT22;12634;50.852;5.676;2023-06-14T11:00:04;28.80;61.70
24468;DHT22;12634;50.852;5.676;2023-06-14T11:05:54;28.90;63.60
24468;DHT22;12634;50.852;5.676;2023-06-14T11:11:22;28.60;63.90
24468;DHT22;12634;50.852;5.676;2023-06-14T11:13:51;29.50;60.40
24468;DHT22;12634;50.852;5.676;2023-06-14T11:16:18;29.10;59.30
24468;DHT22;12634;50.852;5.676;2023-06-14T11:18:46;28.80;54.10
24468;DHT22;12634;50.852;5.676;2023-06-14T11:21:17;29.00;59.60
24468;DHT22;12634;50.852;5.676;2023-06-14T11:23:49;29.10;56.80
24468;DHT22;12634;50.852;5.676;2023-06-14T11:26:24;29.00;56.90
24468;DHT22;12634;50.852;5.676;2023-06-14T11:28:56;29.40;56.60
24468;DHT22;12634;50.852;5.676;2023-06-14T11:31:24;29.70;59.10
24468;DHT22;12634;50.852;5.676;2023-06-14T11:33:54;29.60;55.70
24468;DHT22;12634;50.852;5.676;2023-06-14T11:36:23;29.90;56.70
24468;DHT22;12634;50.852;5.676;2023-06-14T11:38:50;29.90;57.00
24468;DHT22;12634;50.852;5.676;2023-06-14T11:41:25;29.70;53.00
24468;DHT22;12634;50.852;5.676;2023-06-14T11:43:53;29.40;57.40
24468;DHT22;12634;50.852;5.676;2023-06-14T11:46:20;29.70;55.00
24468;DHT22;12634;50.852;5.676;2023-06-14T11:48:52;29.70;57.60
24468;DHT22;12634;50.852;5.676;2023-06-14T11:51:19;30.00;54.90
24468;DHT22;12634;50.852;5.676;2023-06-14T11:53:48;30.00;52.50
24468;DHT22;12634;50.852;5.676;2023-06-14T11:56:15;30.20;58.30
24468;DHT22;12634;50.852;5.676;2023-06-14T11:58:43;29.60;53.70
24468;DHT22;12634;50.852;5.676;2023-06-14T12:01:15;29.80;54.50
24468;DHT22;12634;50.852;5.676;2023-06-14T12:03:47;29.70;53.00
24468;DHT22;12634;50.852;5.676;2023-06-14T12:06:15;29.60;57.60
24468;DHT22;12634;50.852;5.676;2023-06-14T12:08:43;29.80;54.10
24468;DHT22;12634;50.852;5.676;2023-06-14T12:11:13;30.30;56.00
24468;DHT22;12634;50.852;5.676;2023-06-14T12:13:43;29.90;54.30
24468;DHT22;12634;50.852;5.676;2023-06-14T12:16:11;30.40;58.60
24468;DHT22;12634;50.852;5.676;2023-06-14T12:18:39;30.30;51.40
24468;DHT22;12634;50.852;5.676;2023-06-14T12:21:09;29.60;53.50
24468;DHT22;12634;50.852;5.676;2023-06-14T12:23:43;29.80;55.50
24468;DHT22;12634;50.852;5.676;2023-06-14T12:26:14;29.30;54.20
24468;DHT22;12634;50.852;5.676;2023-06-14T12:28:42;28.60;51.70
24468;DHT22;12634;50.852;5.676;2023-06-14T12:31:10;29.00;60.30
24468;DHT22;12634;50.852;5.676;2023-06-14T12:33:38;29.50;56.10
24468;DHT22;12634;50.852;5.676;2023-06-14T12:36:06;30.00;57.00
24468;DHT22;12634;50.852;5.676;2023-06-14T12:38:34;29.90;55.40
24468;DHT22;12634;50.852;5.676;2023-06-14T12:41:01;30.40;55.60
24468;DHT22;12634;50.852;5.676;2023-06-14T12:43:30;30.70;56.50
24468;DHT22;12634;50.852;5.676;2023-06-14T12:45:57;30.70;56.20
24468;DHT22;12634;50.852;5.676;2023-06-14T12:48:24;31.00;56.80
24468;DHT22;12634;50.852;5.676;2023-06-14T12:50:52;31.00;56.90
24468;DHT22;12634;50.852;5.676;2023-06-14T12:53:20;31.00;55.80
24468;DHT22;12634;50.852;5.676;2023-06-14T12:55:47;30.60;52.40
24468;DHT22;12634;50.852;5.676;2023-06-14T12:58:14;30.20;53.50
24468;DHT22;12634;50.852;5.676;2023-06-14T13:00:44;30.40;54.70
24468;DHT22;12634;50.852;5.676;2023-06-14T13:03:11;29.50;52.50
24468;DHT22;12634;50.852;5.676;2023-06-14T13:05:38;29.20;56.50
24468;DHT22;12634;50.852;5.676;2023-06-14T13:08:07;29.10;57.90
24468;DHT22;12634;50.852;5.676;2023-06-14T13:10:35;29.60;58.70
24468;DHT22;12634;50.852;5.676;2023-06-14T13:13:02;30.30;60.00
24468;DHT22;12634;50.852;5.676;2023-06-14T13:15:29;30.90;55.10
24468;DHT22;12634;50.852;5.676;2023-06-14T13:17:58;31.30;55.60
24468;DHT22;12634;50.852;5.676;2023-06-14T13:20:25;31.30;53.60
24468;DHT22;12634;50.852;5.676;2023-06-14T13:22:52;30.20;51.00
24468;DHT22;12634;50.852;5.676;2023-06-14T13:25:19;30.30;55.30
24468;DHT22;12634;50.852;5.676;2023-06-14T13:27:48;30.10;56.90
24468;DHT22;12634;50.852;5.676;2023-06-14T13:30:15;30.80;54.40
24468;DHT22;12634;50.852;5.676;2023-06-14T13:32:42;30.90;55.50
24468;DHT22;12634;50.852;5.676;2023-06-14T13:35:11;29.70;57.10
24468;DHT22;12634;50.852;5.676;2023-06-14T13:37:38;29.70;56.30
24468;DHT22;12634;50.852;5.676;2023-06-14T13:40:06;29.60;57.90
24468;DHT22;12634;50.852;5.676;2023-06-14T13:42:33;30.50;56.10
24468;DHT22;12634;50.852;5.676;2023-06-14T13:45:01;30.70;57.40
24468;DHT22;12634;50.852;5.676;2023-06-14T13:47:29;30.30;56.00
24468;DHT22;12634;50.852;5.676;2023-06-14T13:49:57;30.00;52.60
24468;DHT22;12634;50.852;5.676;2023-06-14T13:52:25;29.30;53.80
24468;DHT22;12634;50.852;5.676;2023-06-14T13:54:53;29.60;58.50
24468;DHT22;12634;50.852;5.676;2023-06-14T13:57:20;30.30;57.10
24468;DHT22;12634;50.852;5.676;2023-06-14T13:59:47;30.10;56.50
24468;DHT22;12634;50.852;5.676;2023-06-14T14:02:14;30.50;56.00
24468;DHT22;12634;50.852;5.676;2023-06-14T14:04:42;30.70;52.80
24468;DHT22;12634;50.852;5.676;2023-06-14T14:07:09;30.10;52.60
24468;DHT22;12634;50.852;5.676;2023-06-14T14:09:37;30.80;56.70
24468;DHT22;12634;50.852;5.676;2023-06-14T14:12:06;31.00;56.10
24468;DHT22;12634;50.852;5.676;2023-06-14T14:14:33;30.90;56.20
24468;DHT22;12634;50.852;5.676;2023-06-14T14:17:00;31.50;53.60
24468;DHT22;12634;50.852;5.676;2023-06-14T14:19:27;31.70;50.10
24468;DHT22;12634;50.852;5.676;2023-06-14T14:21:54;31.40;49.90
24468;DHT22;12634;50.852;5.676;2023-06-14T14:24:21;31.00;53.00
24468;DHT22;12634;50.852;5.676;2023-06-14T14:26:50;31.50;51.90
24468;DHT22;12634;50.852;5.676;2023-06-14T14:29:19;31.20;54.00
24468;DHT22;12634;50.852;5.676;2023-06-14T14:31:47;32.00;49.70
24468;DHT22;12634;50.852;5.676;2023-06-14T14:34:14;31.40;50.40
24468;DHT22;12634;50.852;5.676;2023-06-14T14:36:41;30.60;48.40
24468;DHT22;12634;50.852;5.676;2023-06-14T14:39:09;30.30;50.20
24468;DHT22;12634;50.852;5.676;2023-06-14T14:41:37;30.60;51.40
24468;DHT22;12634;50.852;5.676;2023-06-14T14:44:07;30.30;51.40
24468;DHT22;12634;50.852;5.676;2023-06-14T14:46:34;30.70;50.50
24468;DHT22;12634;50.852;5.676;2023-06-14T14:49:01;30.30;52.70
24468;DHT22;12634;50.852;5.676;2023-06-14T14:51:28;30.10;51.90
24468;DHT22;12634;50.852;5.676;2023-06-14T14:53:55;30.30;51.70
24468;DHT22;12634;50.852;5.676;2023-06-14T14:56:22;30.80;56.10
24468;DHT22;12634;50.852;5.676;2023-06-14T14:58:51;31.00;54.50
24468;DHT22;12634;50.852;5.676;2023-06-14T15:01:20;31.30;50.90
24468;DHT22;12634;50.852;5.676;2023-06-14T15:03:47;30.90;48.80
24468;DHT22;12634;50.852;5.676;2023-06-14T15:06:14;30.60;50.50
24468;DHT22;12634;50.852;5.676;2023-06-14T15:08:43;30.80;51.10
24468;DHT22;12634;50.852;5.676;2023-06-14T15:11:10;30.90;53.70
24468;DHT22;12634;50.852;5.676;2023-06-14T15:13:37;31.40;50.70
24468;DHT22;12634;50.852;5.676;2023-06-14T15:16:04;30.90;46.80
24468;DHT22;12634;50.852;5.676;2023-06-14T15:18:33;30.10;51.50
24468;DHT22;12634;50.852;5.676;2023-06-14T15:21:00;30.50;52.20
24468;DHT22;12634;50.852;5.676;2023-06-14T15:23:27;30.60;53.70
24468;DHT22;12634;50.852;5.676;2023-06-14T15:25:55;31.00;51.20
24468;DHT22;12634;50.852;5.676;2023-06-14T15:28:22;30.60;50.60
24468;DHT22;12634;50.852;5.676;2023-06-14T15:30:50;30.50;53.60
24468;DHT22;12634;50.852;5.676;2023-06-14T15:33:17;29.70;52.20
24468;DHT22;12634;50.852;5.676;2023-06-14T15:35:45;29.40;54.90
24468;DHT22;12634;50.852;5.676;2023-06-14T15:38:12;30.30;57.60
24468;DHT22;12634;50.852;5.676;2023-06-14T15:40:39;30.60;55.50
24468;DHT22;12634;50.852;5.676;2023-06-14T15:43:07;31.00;56.20
24468;DHT22;12634;50.852;5.676;2023-06-14T15:45:34;31.20;52.70